Якутск

Карта отелей и гостиниц, располагающихся рядом с аэропортом Якутск :

Якутск Республика Саха (Якутия) 62° 5' 38.5188" N, 129° 46' 34.0788" E
Код аэродрома ИКАО
UEEE
Код аэродрома RU
УЕЕЕ
Координаты
N62.09403° E129.77613°
Превышение над уровнем моря
100
Основная полоса
05/23
Курс магнитный
052,2/232,2
Длина основной ВПП
3406
Ширина основной ВПП
60
Покрытие основной ВПП
Твёрдое
Освещение ВПП
Постоянное
Тип: 
Аэродром
Класс аэродрома: 
Международный
Принадлежность: 
ГА
Статус: 
Действующий
Сайт: 
http://yks.aero/
E-mail аэродрома: 
office@airport-yakutsk.ru
Страна: 
Россия
Регион: 
Республика Саха (Якутия)
Дополнительная информация: 
Оператор: Акционерное общество «Аэропорт Якутск». Международный аэропорт федерального значения в ДФО на Северо-Востоке России. Расположен в 7 км от центра г. Якутска в Гагаринском округе. Военный индекс: XEEE / ЬЕЕЕ. Имеет также неофициальное название «Туймаада» по названию долины, в которой расположен город Якутск и, соответственно, аэропорт. Аэропорт «Якутск» является единственным в мире аэропортом-полигоном для испытаний новой АТ в условиях низких температур.
Схемы аэропортов: 
Погода: 

Авиационная погода в Якутске

Регион: 
Погода METAR: 
UEEE 172100Z 35002MPS CAVOK 16/06 Q1006 R23L/09//70 NOSIG RMK QFE746
Время наблюдения
2021-06-17T21:00:00Z
Температура C
16.0
Точка росы
6.0
Направление ветра
350
Скорость ветра (узлы)
4
Метео видимость
6.21
Явления погоды
Условия полета
VFR
Аэропорт подробнее: 

Найти трансфер

С помощью этой формы Вы можете найти трансфер из аэропорта Якутск в город, аэропорт или вокзал:

Карта места

Javascript is required to view this map.

Погода в аэропортах:

Авиационная погода в Угольном

Регион: 
Погода METAR: 
UHMA 172100Z 07007MPS 9999 VCFG NSC 07/02 Q1012 R01/60D NOSIG RMK TDZ R01/07007G11MPS END R01/09008G11MPS MT OBSC QFE755/1007
Время наблюдения
2021-06-17T21:00:00Z
Температура C
7.0
Точка росы
2.0
Направление ветра
70
Скорость ветра (узлы)
14
Метео видимость
6.21
Явления погоды
VCFG
Условия полета
VFR
Аэропорт подробнее: 

Авиационная погода в Кишинёве

Регион: 
Погода METAR: 
LUKK 172100Z 03005KT 010V070 8000 -SHRA BKN012 BKN018CB 20/19 Q1015 RESHRA R08/290152 NOSIG
Время наблюдения
2021-06-17T21:00:00Z
Температура C
20.0
Точка росы
19.0
Направление ветра
30
Скорость ветра (узлы)
5
Метео видимость
4.97
Явления погоды
-SHRA
Условия полета
MVFR

Авиационная погода в аэропорту Имени Алексея Леонова

Регион: 
Погода METAR: 
UNEE 172100Z 12002MPS 3900 0900NE R23/0900U FG SCT030CB 14/14 Q1006 R23/CLRD60 NOSIG RMK QFE731
Время наблюдения
2021-06-17T21:00:00Z
Температура C
14.0
Точка росы
14.0
Направление ветра
120
Скорость ветра (узлы)
4
Метео видимость
2.42
Явления погоды
FG
Условия полета
IFR
Аэропорт подробнее: 

Авиационная погода в Мурманске

Регион: 
Погода METAR: 
ULMM 172100Z 00000MPS 9999 -SHRA BKN030CB 10/09 Q1010 R31/190065 NOSIG RMK QFE750
Время наблюдения
2021-06-17T21:00:00Z
Температура C
10.0
Точка росы
9.0
Направление ветра
0
Скорость ветра (узлы)
0
Метео видимость
6.21
Явления погоды
-SHRA
Условия полета
MVFR
Аэропорт подробнее: